createdAt,value
2022-07-26T19:05:32.501Z,23.36
2022-07-26T19:08:04.221Z,23.30
2022-07-26T19:10:32.762Z,23.21
2022-07-26T19:13:01.296Z,23.18
2022-07-26T19:15:30.545Z,23.09
2022-07-26T19:17:59.384Z,23.07
2022-07-26T19:20:29.568Z,23.01
2022-07-26T19:22:59.356Z,22.96
2022-07-26T19:25:27.811Z,22.92
2022-07-26T19:27:57.015Z,22.89
2022-07-26T19:30:25.765Z,22.85
2022-07-26T19:32:55.137Z,22.78
2022-07-26T19:35:23.529Z,22.73
2022-07-26T19:37:52.153Z,22.64
2022-07-26T19:40:22.092Z,22.56
2022-07-26T19:42:50.666Z,22.49
2022-07-26T19:45:19.368Z,22.42
2022-07-26T19:47:48.232Z,22.35
2022-07-26T19:50:17.025Z,22.31
2022-07-26T19:52:45.651Z,22.26
2022-07-26T19:55:14.121Z,22.22
2022-07-26T19:57:44.052Z,22.19
2022-07-26T20:00:13.512Z,22.13
2022-07-26T20:02:42.103Z,22.02
2022-07-26T20:05:11.003Z,21.96
2022-07-26T20:07:40.673Z,21.90
2022-07-26T20:10:10.135Z,21.83
2022-07-26T20:12:38.977Z,21.81
2022-07-26T20:15:10.001Z,21.74
2022-07-26T20:17:40.203Z,21.69
2022-07-26T20:20:09.324Z,21.63
2022-07-26T20:22:38.728Z,21.55
2022-07-26T20:25:09.006Z,21.50
2022-07-26T20:27:37.624Z,21.51
2022-07-26T20:30:07.101Z,21.52
2022-07-26T20:32:37.024Z,21.49
2022-07-26T20:35:05.747Z,21.40
2022-07-26T20:37:34.256Z,21.35
2022-07-26T20:40:03.175Z,21.12
2022-07-26T20:42:31.767Z,20.91
2022-07-26T20:45:01.231Z,20.81
2022-07-26T20:47:29.889Z,20.65
2022-07-26T20:50:03.315Z,20.49
2022-07-26T20:52:32.187Z,20.46
2022-07-26T20:55:00.963Z,20.36
2022-07-26T20:57:29.546Z,20.28
2022-07-26T20:59:57.847Z,20.18
2022-07-26T21:02:26.523Z,20.18
2022-07-26T21:04:55.025Z,20.13
2022-07-26T21:07:58.474Z,20.10
2022-07-26T21:10:15.719Z,20.02
2022-07-26T21:12:44.228Z,20.01
2022-07-26T21:15:12.836Z,20.01
2022-07-26T21:17:41.307Z,19.99
2022-07-26T21:20:10.300Z,19.84
2022-07-26T21:22:40.083Z,19.83
2022-07-26T21:25:08.968Z,19.86
2022-07-26T21:27:37.646Z,19.92
2022-07-26T21:30:07.226Z,19.92
2022-07-26T21:32:35.589Z,19.73
2022-07-26T21:35:04.781Z,19.69
2022-07-26T21:37:33.207Z,19.58
2022-07-26T21:40:02.955Z,19.41
2022-07-26T21:42:31.507Z,19.29
2022-07-26T21:44:59.842Z,19.21
2022-07-26T21:47:28.286Z,19.10
2022-07-26T21:49:56.652Z,19.10
2022-07-26T21:52:25.129Z,19.03
2022-07-26T21:54:53.537Z,19.07
2022-07-26T21:57:23.418Z,19.07
2022-07-26T21:59:52.346Z,19.09
2022-07-26T22:02:21.856Z,19.06
2022-07-26T22:04:50.618Z,19.01
2022-07-26T22:07:18.972Z,19.01
2022-07-26T22:09:47.306Z,18.99
2022-07-26T22:12:15.846Z,18.97
2022-07-26T22:14:46.071Z,18.91
2022-07-26T22:17:14.557Z,18.79
2022-07-26T22:19:43.075Z,18.72
2022-07-26T22:22:11.876Z,18.71
2022-07-26T22:24:40.561Z,18.73
2022-07-26T22:27:09.528Z,18.67
2022-07-26T22:29:40.243Z,18.57
2022-07-26T22:32:10.835Z,18.57
2022-07-26T22:34:39.809Z,18.53
2022-07-26T22:37:08.326Z,18.49
2022-07-26T22:39:37.220Z,18.51
2022-07-26T22:42:15.202Z,18.46
2022-07-26T22:44:44.449Z,18.37
2022-07-26T22:47:14.866Z,18.27
2022-07-26T22:49:43.658Z,18.27
2022-07-26T22:52:12.108Z,18.30
2022-07-26T22:54:40.860Z,18.29
2022-07-26T22:57:09.238Z,18.33
2022-07-26T22:59:38.401Z,18.43
2022-07-26T23:02:06.808Z,18.42
2022-07-26T23:04:37.918Z,18.40
2022-07-26T23:07:08.137Z,18.43
2022-07-26T23:09:37.559Z,18.28
2022-07-26T23:12:06.481Z,18.28
2022-07-26T23:14:35.925Z,18.30
2022-07-26T23:17:04.431Z,18.31
2022-07-26T23:19:32.940Z,18.38
2022-07-26T23:22:03.169Z,18.30
2022-07-26T23:24:31.730Z,18.25
2022-07-26T23:27:00.186Z,18.17
2022-07-26T23:29:28.740Z,18.17
2022-07-26T23:31:57.200Z,18.13
2022-07-26T23:34:25.656Z,18.12
2022-07-26T23:36:54.113Z,18.22
2022-07-26T23:39:24.300Z,18.33
2022-07-26T23:41:52.771Z,18.28
2022-07-26T23:44:21.169Z,18.15
2022-07-26T23:46:49.571Z,18.11
2022-07-26T23:49:18.064Z,18.16
2022-07-26T23:51:46.691Z,18.20
2022-07-26T23:54:15.024Z,18.23
2022-07-26T23:56:45.793Z,18.30
2022-07-26T23:59:15.163Z,18.31
